createdAt,value
2019-04-20T00:04:20.619Z,97956.28
2019-04-20T00:09:18.809Z,97962.86
2019-04-20T00:14:15.801Z,97957.05
2019-04-20T00:19:09.277Z,97951.42
2019-04-20T00:24:15.663Z,97954.16
2019-04-20T00:29:25.347Z,97957.41
2019-04-20T00:34:12.165Z,97946.00
2019-04-20T00:39:05.941Z,97944.00
2019-04-20T00:44:04.673Z,97942.42
2019-04-20T00:49:10.354Z,97933.75
2019-04-20T00:53:57.287Z,97937.14
2019-04-20T00:59:06.075Z,97932.00
2019-04-20T01:04:11.937Z,97937.62
2019-04-20T01:08:55.084Z,97933.64
2019-04-20T01:13:55.617Z,97930.34
2019-04-20T01:18:48.638Z,97939.15
2019-04-20T01:23:52.575Z,97939.08
2019-04-20T01:28:54.163Z,97947.55
2019-04-20T01:33:51.916Z,97947.47
2019-04-20T01:38:51.314Z,97945.02
2019-04-20T01:43:35.348Z,97947.45
2019-04-20T01:48:35.064Z,97952.67
2019-04-20T01:53:50.421Z,97948.00
2019-04-20T01:59:06.059Z,97954.70
2019-04-20T02:04:06.396Z,97953.61
2019-04-20T02:09:11.917Z,97951.93
2019-04-20T02:14:06.705Z,97963.48
2019-04-20T02:19:13.308Z,97956.97
2019-04-20T02:24:02.314Z,97960.72
2019-04-20T02:29:21.862Z,97962.67
2019-04-20T02:34:31.864Z,97966.28
2019-04-20T02:49:35.997Z,97965.73
2019-04-20T02:54:26.027Z,97967.74
2019-04-20T03:03:56.725Z,97973.87
2019-04-20T03:09:09.060Z,97976.43
2019-04-20T03:14:03.690Z,97974.98
2019-04-20T03:19:01.267Z,97972.42
2019-04-20T03:24:06.504Z,97968.16
2019-04-20T03:29:10.200Z,97969.45
2019-04-20T03:39:09.799Z,97972.77
2019-04-20T03:43:49.716Z,97969.02
2019-04-20T03:48:59.726Z,97973.78
2019-04-20T03:54:13.176Z,97966.55
2019-04-20T03:59:33.790Z,97973.16
2019-04-20T04:04:33.805Z,97974.14
2019-04-20T04:09:24.601Z,97972.66
2019-04-20T04:14:09.416Z,97975.48
2019-04-20T04:19:13.050Z,97978.95
2019-04-20T04:24:19.284Z,97982.72
2019-04-20T04:29:27.177Z,97981.17
2019-04-20T04:34:20.555Z,97984.70
2019-04-20T04:39:21.160Z,97985.77
2019-04-20T04:44:10.784Z,97986.97
2019-04-20T04:48:54.793Z,97987.91
2019-04-20T04:53:59.377Z,97992.26
2019-04-20T04:58:51.745Z,98004.67
2019-04-20T05:04:19.256Z,98004.08
2019-04-20T05:08:53.204Z,98002.60
2019-04-20T05:13:52.282Z,98004.06
2019-04-20T05:19:03.335Z,98006.73
2019-04-20T05:24:07.538Z,98003.59
2019-04-20T05:29:02.522Z,98011.98
2019-04-20T05:34:14.478Z,98013.30
2019-04-20T05:39:14.427Z,98013.88
2019-04-20T05:44:06.390Z,98006.94
2019-04-20T05:49:14.061Z,98016.98
2019-04-20T05:54:08.628Z,98010.59
2019-04-20T05:59:03.123Z,98013.17
2019-04-20T06:04:00.569Z,98009.34
2019-04-20T06:08:59.541Z,98012.31
2019-04-20T06:14:03.729Z,98006.34
2019-04-20T06:19:19.846Z,98014.16
2019-04-20T06:24:39.976Z,98003.17
2019-04-20T06:29:26.374Z,98009.58
2019-04-20T06:34:34.376Z,98008.67
2019-04-20T06:54:21.779Z,98008.59
2019-04-20T06:59:33.459Z,98013.34
2019-04-20T07:09:30.936Z,98003.70
2019-04-20T07:14:06.603Z,98004.64
2019-04-20T07:19:22.958Z,98003.94
2019-04-20T07:24:25.214Z,98002.13
2019-04-20T07:29:31.887Z,97995.46
2019-04-20T07:34:21.534Z,98000.48
2019-04-20T07:39:21.625Z,97994.38
2019-04-20T07:44:20.977Z,97996.96
2019-04-20T07:49:21.841Z,97993.88
2019-04-20T07:54:23.186Z,97984.78
2019-04-20T07:58:58.709Z,97984.61
2019-04-20T08:04:21.144Z,97988.13
2019-04-20T08:09:08.720Z,97990.03
2019-04-20T08:14:18.114Z,97987.00
2019-04-20T08:19:08.175Z,97983.13
2019-04-20T08:24:07.207Z,97979.52
2019-04-20T08:29:18.812Z,97980.45
2019-04-20T08:34:31.456Z,97975.89
2019-04-20T08:39:37.709Z,97974.97
2019-04-20T08:44:45.735Z,97966.75
2019-04-20T08:49:28.209Z,97962.61
2019-04-20T08:54:20.708Z,97961.02
2019-04-20T08:58:57.074Z,97957.87
2019-04-20T09:04:05.358Z,97955.47
2019-04-20T09:09:17.367Z,97948.41
2019-04-20T09:13:55.883Z,97942.43
2019-04-20T09:18:56.916Z,97936.41
2019-04-20T09:24:16.219Z,97930.63
2019-04-20T09:29:12.570Z,97926.69
2019-04-20T09:34:39.627Z,97921.70
2019-04-20T09:39:30.447Z,97919.92
2019-04-20T09:44:20.057Z,97911.48
2019-04-20T09:49:29.140Z,97912.98
2019-04-20T09:54:34.044Z,97915.16
2019-04-20T09:59:33.693Z,97905.50
2019-04-20T10:04:11.192Z,97904.02
2019-04-20T10:09:09.594Z,97898.73
2019-04-20T10:14:06.209Z,97898.75
2019-04-20T10:19:02.805Z,97893.08
2019-04-20T10:23:59.247Z,97887.42
2019-04-20T10:28:57.496Z,97886.45
2019-04-20T10:33:53.471Z,97879.59
2019-04-20T10:38:50.724Z,97878.31
2019-04-20T10:43:46.972Z,97871.14
2019-04-20T10:48:48.001Z,97875.02
2019-04-20T10:53:42.290Z,97868.16
2019-04-20T11:34:34.090Z,97849.70
2019-04-20T11:50:25.305Z,97828.63
2019-04-20T12:01:02.726Z,97821.48
2019-04-20T12:33:30.701Z,97793.33
2019-04-20T12:38:27.401Z,97779.97
2019-04-20T12:43:23.653Z,97777.80
2019-04-20T12:48:19.790Z,97775.95
2019-04-20T12:53:16.917Z,97765.65
2019-04-20T12:58:12.879Z,97762.81
2019-04-20T13:03:09.515Z,97757.30
2019-04-20T13:08:06.199Z,97747.95
2019-04-20T13:13:10.733Z,97747.09
2019-04-20T13:18:15.323Z,97738.28
2019-04-20T13:23:12.973Z,97733.42
2019-04-20T13:28:12.916Z,97732.76
2019-04-20T13:33:29.577Z,97730.60
2019-04-20T13:38:45.867Z,97728.28
2019-04-20T13:43:45.924Z,97727.24
2019-04-20T13:48:42.802Z,97706.73
2019-04-20T13:53:39.313Z,97709.88
2019-04-20T13:58:53.943Z,97708.05
2019-04-20T14:04:03.149Z,97698.22
2019-04-20T14:09:01.191Z,97684.71
2019-04-20T14:14:01.243Z,97681.51
2019-04-20T14:18:56.120Z,97675.02
2019-04-20T14:23:53.051Z,97666.83
2019-04-20T14:28:49.210Z,97650.42
2019-04-20T14:33:45.071Z,97646.42
2019-04-20T14:38:44.839Z,97642.20
2019-04-20T14:43:39.912Z,97636.31
2019-04-20T14:48:36.617Z,97631.47
2019-04-20T14:53:33.637Z,97629.50
2019-04-20T14:58:43.298Z,97622.95
2019-04-20T15:03:40.898Z,97623.25
2019-04-20T15:08:38.570Z,97616.02
2019-04-20T15:13:35.654Z,97601.69
2019-04-20T15:19:18.857Z,97597.67
2019-04-20T15:24:15.465Z,97588.70
2019-04-20T15:29:12.505Z,97577.37
2019-04-20T15:34:08.857Z,97579.52
2019-04-20T15:39:07.336Z,97576.44
2019-04-20T15:44:03.632Z,97577.59
2019-04-20T15:48:59.875Z,97570.27
2019-04-20T15:53:55.756Z,97568.62
2019-04-20T15:58:52.536Z,97570.60
2019-04-20T16:03:55.338Z,97566.91
2019-04-20T16:08:54.444Z,97564.34
2019-04-20T16:13:53.695Z,97564.75
2019-04-20T16:18:48.614Z,97562.97
2019-04-20T16:24:06.733Z,97555.56
2019-04-20T16:29:03.826Z,97553.11
2019-04-20T16:34:01.066Z,97547.25
2019-04-20T16:38:57.469Z,97541.40
2019-04-20T16:43:53.459Z,97548.60
2019-04-20T16:48:49.307Z,97539.14
2019-04-20T16:53:45.727Z,97535.45
2019-04-20T16:58:41.956Z,97528.98
2019-04-20T17:03:49.265Z,97525.86
2019-04-20T17:08:36.536Z,97528.53
2019-04-20T17:14:04.449Z,97523.74
2019-04-20T17:19:15.576Z,97518.91
2019-04-20T17:24:37.581Z,97519.09
2019-04-20T17:30:54.821Z,97529.14
2019-04-20T17:36:44.466Z,97530.09
2019-04-20T17:42:25.108Z,97535.95
2019-04-20T17:54:05.352Z,97541.25
2019-04-20T17:58:58.566Z,97547.40
2019-04-20T18:04:32.202Z,97549.88
2019-04-20T18:15:29.423Z,97557.23
2019-04-20T18:20:14.792Z,97566.36
2019-04-20T18:26:01.532Z,97565.30
2019-04-20T18:31:03.716Z,97574.05
2019-04-20T18:35:58.324Z,97580.31
2019-04-20T18:41:00.979Z,97581.55
2019-04-20T18:46:07.884Z,97591.96
2019-04-20T18:50:50.817Z,97592.13
2019-04-20T18:55:54.153Z,97598.34
2019-04-20T19:00:50.111Z,97600.47
2019-04-20T19:05:43.875Z,97608.23
2019-04-20T19:10:47.149Z,97604.86
2019-04-20T19:16:06.900Z,97606.03
2019-04-20T19:21:01.444Z,97599.66
2019-04-20T19:26:02.424Z,97599.97
2019-04-20T19:31:10.403Z,97600.34
2019-04-20T19:36:04.843Z,97593.55
2019-04-20T19:40:58.379Z,97589.11
2019-04-20T19:46:30.773Z,97594.63
2019-04-20T19:51:12.878Z,97593.70
2019-04-20T19:55:56.663Z,97593.01
2019-04-20T20:00:54.234Z,97590.45
2019-04-20T20:05:51.813Z,97589.66
2019-04-20T20:10:48.424Z,97589.42
2019-04-20T20:15:45.515Z,97601.45
2019-04-20T20:21:00.629Z,97606.97
2019-04-20T20:25:44.673Z,97603.06
2019-04-20T20:30:55.261Z,97602.88
2019-04-20T20:35:45.856Z,97608.06
2019-04-20T20:40:38.503Z,97606.96
2019-04-20T20:46:50.936Z,97607.51
2019-04-20T20:51:54.548Z,97609.67
2019-04-20T20:56:35.616Z,97612.31
2019-04-20T21:01:40.494Z,97605.98
2019-04-20T21:06:30.927Z,97606.16
2019-04-20T21:11:30.669Z,97599.77
2019-04-20T21:16:30.907Z,97598.59
2019-04-20T21:21:37.361Z,97602.15
2019-04-20T21:26:26.894Z,97595.45
2019-04-20T21:31:23.308Z,97592.30
2019-04-20T21:36:21.177Z,97598.20
2019-04-20T21:41:16.481Z,97587.24
2019-04-20T21:46:11.909Z,97579.26
2019-04-20T21:51:20.765Z,97579.89
2019-04-20T21:56:05.887Z,97578.13
2019-04-20T22:01:12.453Z,97577.66
2019-04-20T22:06:08.926Z,97577.08
2019-04-20T22:11:05.901Z,97573.80
2019-04-20T22:16:07.196Z,97568.61
2019-04-20T22:21:11.224Z,97569.88
2019-04-20T22:26:10.237Z,97574.86
2019-04-20T22:30:55.806Z,97579.56
2019-04-20T22:35:57.655Z,97579.70
2019-04-20T22:40:49.180Z,97565.66
2019-04-20T22:45:50.319Z,97576.52
2019-04-20T22:51:03.572Z,97573.42
2019-04-20T22:56:01.259Z,97571.27
2019-04-20T23:00:45.258Z,97558.48
2019-04-20T23:05:36.360Z,97551.42
2019-04-20T23:10:40.875Z,97547.46
2019-04-20T23:15:34.270Z,97550.00
2019-04-20T23:20:34.205Z,97547.30
2019-04-20T23:25:29.190Z,97542.31
2019-04-20T23:30:30.213Z,97545.64
2019-04-20T23:35:24.919Z,97541.83
2019-04-20T23:40:21.644Z,97529.13
2019-04-20T23:45:50.750Z,97520.59
2019-04-20T23:51:01.050Z,97519.74
2019-04-20T23:55:41.953Z,97518.00
